Accueil
METAR-TAF:

METAR-TAF

Aéroports :

Berlin, New Hampshire, États-Unis

latitude: 44-34-34N, longitude: 071-10-43W, altitude: 353 m

Observation

Le bulletin a été fait il y a 12 minutes, à 10:52 UTC
Vent 7 kt de nord/nord-ouest
Température -6°C
Humidité 73%
Pression 1017 hPa
Visibilité: 8.0 km
Nuages fragmentés à une hauteur de 2300 ft
Ciel couvert à une hauteur de 3300 ft
neige faible

METAR: KBML 101052Z AUTO 34007KT 5SM -SN BKN023 OVC033 M06/M10 A3003 RMK AO2 SNB35 SLP187 P0000 T10611100

Heure: 06:04 (11:04 UTC)


TAF: absent

Observations et prévisions météorologiques de plus de 4000 aéroports (messages METAR et TAF).

Les stations disponibles sont représentées par des disques jaunes et rouges sur la carte.

Passer la souris dessus pour voir le nom de la station.

Cliquer dessus pour voir les observations et prévisions météorologiques.

Pour changer de carte: cliquez sur les boutons verts avec une croix noire pour zoomer, sur le bouton vert avec un tiret pour effectuer un zoom arrière, ou sur les flèches vertes pour les cartes adjacentes.


METAR-TAF: